createdAt,value
2019-05-26T00:00:21.007Z,7.90
2019-05-26T00:01:53.416Z,8.13
2019-05-26T00:03:25.903Z,8.17
2019-05-26T00:04:58.257Z,8.67
2019-05-26T00:06:30.590Z,8.63
2019-05-26T00:08:02.999Z,8.37
2019-05-26T00:09:35.427Z,7.70
2019-05-26T00:11:07.834Z,8.20
2019-05-26T00:12:40.232Z,7.93
2019-05-26T00:14:12.636Z,8.03
2019-05-26T00:15:45.056Z,8.57
2019-05-26T00:17:17.464Z,8.33
2019-05-26T00:18:49.911Z,8.00
2019-05-26T00:20:22.896Z,8.40
2019-05-26T00:21:55.437Z,7.13
2019-05-26T00:23:27.871Z,7.83
2019-05-26T00:25:00.383Z,8.37
2019-05-26T00:26:32.860Z,7.93
2019-05-26T00:28:05.279Z,7.93
2019-05-26T00:29:37.735Z,8.07
2019-05-26T00:31:10.142Z,8.07
2019-05-26T00:32:42.716Z,8.80
2019-05-26T00:34:15.399Z,7.53
2019-05-26T00:35:47.960Z,7.87
2019-05-26T00:37:20.420Z,7.57
2019-05-26T00:38:52.852Z,8.23
2019-05-26T00:40:25.338Z,7.73
2019-05-26T00:41:57.828Z,7.63
2019-05-26T00:43:30.615Z,8.10
2019-05-26T00:45:03.317Z,7.57
2019-05-26T00:46:35.816Z,8.13
2019-05-26T00:48:08.309Z,7.87
2019-05-26T00:49:40.764Z,8.07
2019-05-26T00:51:13.263Z,8.47
2019-05-26T00:52:45.741Z,7.33
2019-05-26T00:54:18.263Z,7.33
2019-05-26T00:55:50.615Z,7.40
2019-05-26T00:57:23.014Z,7.80
2019-05-26T00:58:55.431Z,7.67
2019-05-26T01:00:27.783Z,7.03
2019-05-26T01:02:00.191Z,7.30
2019-05-26T01:03:32.591Z,7.80
2019-05-26T01:05:04.952Z,7.15
2019-05-26T01:06:37.432Z,7.53
2019-05-26T01:08:09.912Z,7.70
2019-05-26T01:09:42.267Z,7.30
2019-05-26T01:11:14.685Z,7.83
2019-05-26T01:12:47.093Z,7.07
2019-05-26T01:14:19.433Z,6.47
2019-05-26T01:15:51.860Z,6.30
2019-05-26T01:17:24.349Z,6.17
2019-05-26T01:18:56.751Z,6.23
2019-05-26T01:20:29.172Z,6.43
2019-05-26T01:22:01.503Z,6.50
2019-05-26T01:23:33.979Z,6.90
2019-05-26T01:25:06.472Z,5.93
2019-05-26T01:26:38.807Z,6.43
2019-05-26T01:28:11.209Z,6.40
2019-05-26T01:29:43.714Z,5.97
2019-05-26T01:31:16.203Z,6.37
2019-05-26T01:32:48.531Z,6.00
2019-05-26T01:34:20.943Z,6.07
2019-05-26T01:35:53.439Z,7.00
2019-05-26T01:37:25.793Z,6.30
2019-05-26T01:38:58.282Z,6.50
2019-05-26T01:40:30.748Z,6.30
2019-05-26T01:42:03.097Z,6.20
2019-05-26T01:43:35.557Z,6.50
2019-05-26T01:45:07.946Z,6.43
2019-05-26T01:46:40.384Z,5.87
2019-05-26T01:48:12.872Z,5.83
2019-05-26T01:49:45.332Z,6.20
2019-05-26T01:51:17.680Z,5.53
2019-05-26T01:52:50.088Z,6.47
2019-05-26T01:54:22.491Z,6.03
2019-05-26T01:55:54.845Z,6.23
2019-05-26T01:57:27.544Z,5.70
2019-05-26T01:58:59.958Z,5.73
2019-05-26T02:00:32.301Z,5.73
2019-05-26T02:02:04.796Z,4.83
2019-05-26T02:03:37.199Z,5.87
2019-05-26T02:05:09.536Z,5.77
2019-05-26T02:06:41.960Z,5.93
2019-05-26T02:08:14.451Z,5.53
2019-05-26T02:09:46.783Z,5.53
2019-05-26T02:11:19.289Z,5.33
2019-05-26T02:12:51.694Z,4.83
2019-05-26T02:14:24.096Z,5.03
2019-05-26T02:15:56.435Z,5.00
2019-05-26T02:17:28.931Z,5.50
2019-05-26T02:19:01.338Z,5.10
2019-05-26T02:20:33.811Z,4.67
2019-05-26T02:22:06.404Z,4.90
2019-05-26T02:23:38.811Z,4.10
2019-05-26T02:25:11.216Z,4.70
2019-05-26T02:26:43.644Z,4.87
2019-05-26T02:28:16.092Z,4.70
2019-05-26T02:29:48.562Z,4.43
2019-05-26T02:31:21.064Z,4.40
2019-05-26T02:32:53.475Z,4.60
2019-05-26T02:34:25.957Z,4.73
2019-05-26T02:35:58.426Z,4.47
2019-05-26T02:37:30.845Z,4.93
2019-05-26T02:39:03.716Z,4.80
2019-05-26T02:40:36.238Z,4.40
2019-05-26T02:42:08.725Z,4.30
2019-05-26T02:43:41.248Z,4.40
2019-05-26T02:45:13.721Z,4.20
2019-05-26T02:46:46.160Z,4.47
2019-05-26T02:48:18.565Z,4.80
2019-05-26T02:49:51.047Z,4.47
2019-05-26T02:51:23.453Z,4.30
2019-05-26T02:52:56.111Z,3.77
2019-05-26T02:54:28.515Z,4.70
2019-05-26T02:56:00.852Z,4.03
2019-05-26T02:57:33.352Z,4.00
2019-05-26T02:59:05.827Z,3.90
2019-05-26T03:00:38.161Z,4.07
2019-05-26T03:02:10.656Z,3.83
2019-05-26T03:03:43.066Z,4.23
2019-05-26T03:05:15.479Z,3.70
2019-05-26T03:06:47.961Z,3.97
2019-05-26T03:08:20.451Z,3.83
2019-05-26T03:09:52.877Z,3.60
2019-05-26T03:11:25.350Z,4.07
2019-05-26T03:12:57.782Z,3.57
2019-05-26T03:14:30.115Z,3.63
2019-05-26T03:16:02.599Z,3.60
2019-05-26T03:17:35.098Z,3.50
2019-05-26T03:19:07.580Z,3.60
2019-05-26T03:20:40.077Z,3.80
2019-05-26T03:22:12.552Z,3.70
2019-05-26T03:23:44.957Z,3.60
2019-05-26T03:25:17.359Z,3.57
2019-05-26T03:26:49.837Z,3.50
2019-05-26T03:28:22.429Z,3.57
2019-05-26T03:29:54.924Z,3.30
2019-05-26T03:31:27.325Z,3.20
2019-05-26T03:32:59.844Z,3.40
2019-05-26T03:34:32.260Z,3.23
2019-05-26T03:36:04.739Z,3.17
2019-05-26T03:37:37.144Z,3.13
2019-05-26T03:39:09.637Z,3.07
2019-05-26T03:40:42.053Z,3.13
2019-05-26T03:42:14.391Z,3.00
2019-05-26T03:43:46.891Z,2.83
2019-05-26T03:45:19.366Z,2.80
2019-05-26T03:46:51.777Z,2.87
2019-05-26T03:48:25.106Z,2.77
2019-05-26T03:49:57.518Z,2.70
2019-05-26T03:51:29.919Z,2.80
2019-05-26T03:53:02.399Z,2.80
2019-05-26T03:54:34.900Z,3.10
2019-05-26T03:56:07.319Z,2.60
2019-05-26T03:57:39.789Z,2.77
2019-05-26T03:59:12.282Z,2.40
2019-05-26T04:00:44.692Z,2.70
2019-05-26T04:02:17.103Z,3.00
2019-05-26T04:03:49.537Z,2.57
2019-05-26T04:05:21.955Z,2.80
2019-05-26T04:06:54.428Z,2.90
2019-05-26T04:08:26.912Z,2.50
2019-05-26T04:10:05.571Z,2.50
2019-05-26T04:11:33.540Z,2.90
2019-05-26T04:13:06.032Z,2.90
2019-05-26T04:14:38.453Z,2.70
2019-05-26T04:16:10.944Z,2.47
2019-05-26T04:17:43.421Z,2.70
2019-05-26T04:19:15.850Z,2.70
2019-05-26T04:20:48.285Z,2.50
2019-05-26T04:22:20.748Z,2.60
2019-05-26T04:23:53.104Z,2.33
2019-05-26T04:25:25.580Z,2.30
2019-05-26T04:26:57.913Z,2.50
2019-05-26T04:28:30.244Z,2.70
2019-05-26T04:30:02.674Z,2.70
2019-05-26T04:31:35.013Z,2.43
2019-05-26T04:33:07.424Z,2.40
2019-05-26T04:34:39.855Z,2.70
2019-05-26T04:36:12.630Z,2.40
2019-05-26T04:37:45.043Z,2.40
2019-05-26T04:39:17.465Z,2.97
2019-05-26T04:40:49.794Z,2.70
2019-05-26T04:42:22.215Z,2.47
2019-05-26T04:43:54.690Z,2.53
2019-05-26T04:45:27.129Z,2.37
2019-05-26T04:46:59.544Z,2.63
2019-05-26T04:48:32.024Z,2.20
2019-05-26T04:50:04.614Z,2.90
2019-05-26T04:51:37.021Z,2.33
2019-05-26T04:53:09.511Z,2.60
2019-05-26T04:54:41.941Z,2.20
2019-05-26T04:56:14.427Z,2.57
2019-05-26T04:57:46.836Z,2.33
2019-05-26T04:59:19.316Z,2.43
2019-05-26T05:00:51.742Z,2.40
2019-05-26T05:02:24.248Z,2.30
2019-05-26T05:03:56.725Z,2.10
2019-05-26T05:05:29.149Z,2.50
2019-05-26T05:07:01.562Z,2.47
2019-05-26T05:08:34.096Z,2.17
2019-05-26T05:10:06.682Z,2.53
2019-05-26T05:11:39.159Z,2.33
2019-05-26T05:13:11.565Z,2.43
2019-05-26T05:14:43.932Z,2.53
2019-05-26T05:16:16.416Z,2.30
2019-05-26T05:17:48.827Z,2.60
2019-05-26T05:19:21.236Z,2.57
2019-05-26T05:20:53.732Z,2.43
2019-05-26T05:22:26.211Z,2.53
2019-05-26T05:23:58.699Z,2.40
2019-05-26T05:25:31.082Z,2.30
2019-05-26T05:27:03.552Z,2.20
2019-05-26T05:28:35.969Z,2.40
2019-05-26T05:30:08.537Z,2.50
2019-05-26T05:31:41.195Z,2.43
2019-05-26T05:33:13.606Z,2.35
2019-05-26T05:34:46.007Z,2.33
2019-05-26T05:36:18.365Z,2.40
2019-05-26T05:37:50.760Z,2.20
2019-05-26T05:39:23.345Z,2.03
2019-05-26T05:41:00.003Z,2.10
2019-05-26T05:42:30.627Z,2.37
2019-05-26T05:44:03.101Z,2.23
2019-05-26T05:45:35.687Z,2.30
2019-05-26T05:47:08.377Z,2.37
2019-05-26T05:48:40.745Z,2.00
2019-05-26T05:50:13.522Z,2.30
2019-05-26T05:51:45.948Z,2.43
2019-05-26T05:53:18.431Z,2.53
2019-05-26T05:54:51.414Z,2.20
2019-05-26T05:56:23.878Z,2.30
2019-05-26T05:57:56.377Z,2.37
2019-05-26T05:59:28.864Z,2.40
2019-05-26T06:01:01.197Z,2.33
2019-05-26T06:02:33.620Z,2.07
2019-05-26T06:04:06.179Z,2.50
2019-05-26T06:05:38.664Z,2.33
2019-05-26T06:07:11.100Z,2.30
2019-05-26T06:08:43.617Z,2.23
2019-05-26T06:10:16.187Z,2.23
2019-05-26T06:11:53.069Z,2.57
2019-05-26T06:13:22.635Z,2.57
2019-05-26T06:14:55.035Z,2.50
2019-05-26T06:16:27.441Z,2.60
2019-05-26T06:18:00.650Z,2.50
2019-05-26T06:19:33.186Z,2.83
2019-05-26T06:21:05.696Z,2.60
2019-05-26T06:22:38.116Z,2.50
2019-05-26T06:24:10.545Z,2.33
2019-05-26T06:25:43.025Z,2.90
2019-05-26T06:27:15.513Z,2.80
2019-05-26T06:28:51.573Z,2.30
2019-05-26T06:30:22.336Z,2.60
2019-05-26T06:31:55.066Z,2.40
2019-05-26T06:33:27.871Z,2.80
2019-05-26T06:35:00.293Z,2.57
2019-05-26T06:36:32.760Z,2.60
2019-05-26T06:38:05.287Z,2.30
2019-05-26T06:39:37.815Z,2.65
2019-05-26T06:41:10.290Z,2.83
2019-05-26T06:42:42.705Z,3.10
2019-05-26T06:44:15.140Z,2.90
2019-05-26T06:45:47.543Z,2.90
2019-05-26T06:47:19.878Z,2.93
2019-05-26T06:48:52.298Z,3.03
2019-05-26T06:50:24.789Z,3.45
2019-05-26T06:51:57.242Z,3.70
2019-05-26T06:53:30.044Z,3.60
2019-05-26T06:55:02.623Z,3.10
2019-05-26T06:56:35.051Z,3.17
2019-05-26T06:58:07.519Z,3.37
2019-05-26T06:59:39.972Z,3.45
2019-05-26T07:01:15.139Z,3.30
2019-05-26T07:02:47.631Z,3.30
2019-05-26T07:04:20.316Z,3.30
2019-05-26T07:05:52.913Z,3.52
2019-05-26T07:07:25.347Z,3.77
2019-05-26T07:08:57.836Z,4.00
2019-05-26T07:10:30.295Z,4.15
2019-05-26T07:12:02.727Z,4.08
2019-05-26T07:13:36.329Z,4.20
2019-05-26T07:15:08.784Z,4.47
2019-05-26T07:16:41.253Z,4.40
2019-05-26T07:18:13.747Z,4.00
2019-05-26T07:19:46.149Z,4.37
2019-05-26T07:21:20.850Z,3.85
2019-05-26T07:22:53.883Z,3.87
2019-05-26T07:24:29.329Z,3.98
2019-05-26T07:26:00.348Z,4.85
2019-05-26T07:27:32.683Z,4.80
2019-05-26T07:29:05.024Z,4.45
2019-05-26T07:30:37.528Z,4.75
2019-05-26T07:32:10.121Z,4.87
2019-05-26T07:33:42.676Z,4.53
2019-05-26T07:35:15.173Z,4.55
2019-05-26T07:36:47.599Z,5.45
2019-05-26T07:38:20.000Z,4.97
2019-05-26T07:39:52.412Z,5.00
2019-05-26T07:41:24.836Z,7.20
2019-05-26T07:42:57.166Z,5.42
2019-05-26T07:44:29.503Z,5.05
2019-05-26T07:46:01.993Z,5.30
2019-05-26T07:47:34.402Z,5.33
2019-05-26T07:49:06.807Z,5.45
2019-05-26T07:50:39.271Z,4.83
2019-05-26T07:52:11.699Z,6.05
2019-05-26T07:53:44.111Z,5.20
2019-05-26T07:55:16.511Z,5.70
2019-05-26T07:56:48.934Z,5.30
2019-05-26T07:58:21.407Z,5.12
2019-05-26T07:59:53.819Z,5.25
2019-05-26T08:01:35.120Z,5.35
2019-05-26T08:03:00.275Z,5.72
2019-05-26T08:04:32.765Z,5.10
2019-05-26T08:06:05.174Z,5.58
2019-05-26T08:07:37.695Z,5.40
2019-05-26T08:09:10.175Z,5.60
2019-05-26T08:10:42.555Z,4.20
2019-05-26T08:12:25.836Z,4.87
2019-05-26T08:13:49.100Z,5.20
2019-05-26T08:15:21.432Z,4.83
2019-05-26T08:16:54.612Z,4.65
2019-05-26T08:18:27.109Z,5.08
2019-05-26T08:19:59.940Z,4.22
2019-05-26T08:21:32.471Z,4.72
2019-05-26T08:23:05.188Z,4.70
2019-05-26T08:24:37.633Z,4.30
2019-05-26T08:26:10.119Z,4.30
2019-05-26T08:27:42.605Z,4.72
2019-05-26T08:29:15.079Z,7.62
2019-05-26T08:30:47.417Z,4.35
2019-05-26T08:32:19.918Z,4.60
2019-05-26T08:33:53.104Z,4.22
2019-05-26T08:35:27.099Z,4.33
2019-05-26T08:36:59.690Z,4.20
2019-05-26T08:38:32.226Z,4.12
2019-05-26T08:40:05.595Z,4.60
2019-05-26T08:41:38.084Z,4.42
2019-05-26T08:43:10.606Z,4.20
2019-05-26T08:44:43.034Z,4.12
2019-05-26T08:46:15.528Z,4.22
2019-05-26T08:47:47.981Z,4.28
2019-05-26T08:49:20.479Z,4.20
2019-05-26T08:50:52.912Z,4.60
2019-05-26T08:52:25.316Z,3.98
2019-05-26T08:53:57.815Z,4.10
2019-05-26T08:55:30.307Z,4.30
2019-05-26T08:57:02.720Z,4.00
2019-05-26T08:58:35.168Z,4.40
2019-05-26T09:00:07.585Z,4.08
2019-05-26T09:01:39.999Z,4.45
2019-05-26T09:03:12.656Z,4.10
2019-05-26T09:04:45.148Z,3.72
2019-05-26T09:06:17.574Z,3.67
2019-05-26T09:07:50.056Z,3.02
2019-05-26T09:09:22.576Z,3.25
2019-05-26T09:10:55.007Z,3.65
2019-05-26T09:12:27.516Z,3.92
2019-05-26T09:14:00.016Z,4.10
2019-05-26T09:15:32.436Z,6.05
2019-05-26T09:17:04.849Z,4.60
2019-05-26T09:18:37.200Z,3.45
2019-05-26T09:20:11.628Z,3.85
2019-05-26T09:21:43.743Z,3.92
2019-05-26T09:23:16.266Z,3.90
2019-05-26T09:24:50.431Z,3.50
2019-05-26T09:26:28.066Z,3.60
2019-05-26T09:28:01.611Z,3.70
2019-05-26T09:29:37.143Z,3.70
2019-05-26T09:31:09.664Z,3.75
2019-05-26T09:32:42.135Z,3.50
2019-05-26T09:34:14.490Z,3.10
2019-05-26T09:35:47.336Z,3.00
2019-05-26T09:37:19.819Z,3.08
2019-05-26T09:38:52.505Z,3.52
2019-05-26T09:40:25.220Z,3.17
2019-05-26T09:41:57.696Z,3.20
2019-05-26T09:43:30.358Z,3.35
2019-05-26T09:45:05.451Z,3.00
2019-05-26T09:46:37.823Z,3.12
2019-05-26T09:48:10.404Z,2.92
2019-05-26T09:49:42.879Z,3.08
2019-05-26T09:51:15.299Z,3.30
2019-05-26T09:52:47.652Z,2.90
2019-05-26T09:54:20.133Z,3.22
2019-05-26T09:55:53.153Z,3.15
2019-05-26T09:57:25.685Z,3.37
2019-05-26T09:58:58.289Z,2.70
2019-05-26T10:00:33.694Z,2.55
2019-05-26T10:02:06.066Z,2.40
2019-05-26T10:03:38.512Z,2.80
2019-05-26T10:05:10.927Z,2.58
2019-05-26T10:06:43.658Z,2.70
2019-05-26T10:08:16.183Z,2.47
2019-05-26T10:09:48.589Z,3.20
2019-05-26T10:11:21.028Z,2.95
2019-05-26T10:12:53.509Z,2.80
2019-05-26T10:14:26.024Z,2.67
2019-05-26T10:15:58.628Z,2.33
2019-05-26T10:17:31.081Z,2.20
2019-05-26T10:19:03.575Z,2.00
2019-05-26T10:20:36.051Z,1.82
2019-05-26T10:22:08.563Z,1.92
2019-05-26T10:23:41.054Z,1.90
2019-05-26T10:25:13.476Z,2.08
2019-05-26T10:26:45.996Z,2.10
2019-05-26T10:28:18.427Z,2.47
2019-05-26T10:29:50.841Z,2.40
2019-05-26T10:31:23.355Z,2.25
2019-05-26T10:32:55.825Z,2.20
2019-05-26T10:34:28.238Z,2.60
2019-05-26T10:36:00.664Z,2.27
2019-05-26T10:37:33.104Z,2.30
2019-05-26T10:39:05.524Z,2.37
2019-05-26T10:40:37.955Z,2.15
2019-05-26T10:42:10.396Z,2.67
2019-05-26T10:43:47.356Z,2.70
2019-05-26T10:45:16.932Z,2.55
2019-05-26T10:46:49.530Z,2.35
2019-05-26T10:48:21.953Z,2.20
2019-05-26T10:49:54.444Z,2.67
2019-05-26T10:51:26.867Z,3.22
2019-05-26T10:52:59.300Z,2.60
2019-05-26T10:54:31.791Z,2.35
2019-05-26T10:56:04.305Z,2.30
2019-05-26T10:57:36.729Z,2.37
2019-05-26T10:59:09.212Z,2.50
2019-05-26T11:00:41.694Z,2.60
2019-05-26T11:02:14.214Z,2.35
2019-05-26T11:03:46.738Z,2.45
2019-05-26T11:05:19.238Z,2.37
2019-05-26T11:06:51.712Z,2.40
2019-05-26T11:08:24.261Z,2.30
2019-05-26T11:09:56.746Z,2.30
2019-05-26T11:11:29.171Z,2.30
2019-05-26T11:13:01.672Z,2.60
2019-05-26T11:14:34.227Z,2.37
2019-05-26T11:16:06.658Z,2.50
2019-05-26T11:17:39.163Z,2.70
2019-05-26T11:19:11.666Z,2.60
2019-05-26T11:20:44.079Z,2.60
2019-05-26T11:22:16.549Z,2.30
2019-05-26T11:23:49.051Z,2.58
2019-05-26T11:25:21.456Z,2.35
2019-05-26T11:26:53.904Z,2.33
2019-05-26T11:28:26.319Z,2.50
2019-05-26T11:29:58.735Z,2.10
2019-05-26T11:31:31.217Z,2.40
2019-05-26T11:33:03.656Z,2.45
2019-05-26T11:34:36.108Z,2.47
2019-05-26T11:36:08.552Z,2.47
2019-05-26T11:37:41.065Z,2.30
2019-05-26T11:39:13.581Z,2.20
2019-05-26T11:40:46.094Z,2.30
2019-05-26T11:42:18.499Z,2.15
2019-05-26T11:43:50.943Z,2.55
2019-05-26T11:45:23.421Z,2.30
2019-05-26T11:46:55.895Z,2.50
2019-05-26T11:48:28.283Z,2.05
2019-05-26T11:50:00.692Z,2.20
2019-05-26T11:51:33.114Z,1.95
2019-05-26T11:53:05.535Z,2.15
2019-05-26T11:54:38.161Z,2.10
2019-05-26T11:56:10.787Z,2.40
2019-05-26T11:57:43.177Z,2.35
2019-05-26T11:59:15.599Z,2.30
2019-05-26T12:00:48.000Z,2.27
2019-05-26T12:02:20.402Z,2.45
2019-05-26T12:03:52.756Z,2.17
2019-05-26T12:05:25.233Z,2.50
2019-05-26T12:06:57.570Z,2.25
2019-05-26T12:08:30.051Z,2.15
2019-05-26T12:10:02.627Z,2.08
2019-05-26T12:11:34.978Z,2.30
2019-05-26T12:13:07.448Z,2.50
2019-05-26T12:14:39.868Z,2.20
2019-05-26T12:16:12.929Z,2.40
2019-05-26T12:17:46.074Z,2.37
2019-05-26T12:19:18.683Z,1.98
2019-05-26T12:20:51.014Z,2.02
2019-05-26T12:22:23.675Z,2.20
2019-05-26T12:23:57.360Z,2.75
2019-05-26T12:25:29.784Z,2.77
2019-05-26T12:27:02.301Z,2.35
2019-05-26T12:28:36.972Z,2.55
2019-05-26T12:30:09.412Z,2.72
2019-05-26T12:31:41.957Z,2.62
2019-05-26T12:33:14.494Z,2.37
2019-05-26T12:34:46.915Z,2.17
2019-05-26T12:36:19.394Z,2.08
2019-05-26T12:37:52.104Z,2.60
2019-05-26T12:39:24.510Z,2.87
2019-05-26T12:40:57.346Z,2.72
2019-05-26T12:42:29.752Z,2.40
2019-05-26T12:44:02.240Z,2.17
2019-05-26T12:45:34.831Z,2.35
2019-05-26T12:47:25.765Z,2.52
2019-05-26T12:49:16.183Z,2.35
2019-05-26T12:51:07.508Z,2.62
2019-05-26T12:52:58.279Z,2.30
2019-05-26T12:54:49.147Z,2.52
2019-05-26T12:56:40.063Z,2.35
2019-05-26T12:58:30.366Z,2.60
2019-05-26T13:00:21.810Z,2.87
2019-05-26T13:01:54.493Z,2.45
2019-05-26T13:03:26.840Z,2.58
2019-05-26T13:05:01.016Z,2.40
2019-05-26T13:06:33.463Z,2.62
2019-05-26T13:08:05.940Z,2.00
2019-05-26T13:09:38.415Z,2.70
2019-05-26T13:11:10.769Z,2.20
2019-05-26T13:12:43.414Z,2.42
2019-05-26T13:14:15.823Z,2.50
2019-05-26T13:15:48.213Z,2.40
2019-05-26T13:17:20.684Z,2.55
2019-05-26T13:18:53.157Z,2.20
2019-05-26T13:20:25.494Z,2.35
2019-05-26T13:22:00.881Z,2.60
2019-05-26T13:23:33.500Z,2.15
2019-05-26T13:25:05.915Z,2.20
2019-05-26T13:26:38.340Z,2.10
2019-05-26T13:28:10.795Z,2.30
2019-05-26T13:29:43.196Z,2.70
2019-05-26T13:31:15.706Z,2.20
2019-05-26T13:32:48.115Z,2.10
2019-05-26T13:34:20.536Z,2.65
2019-05-26T13:35:53.020Z,2.50
2019-05-26T13:37:25.385Z,2.22
2019-05-26T13:38:57.799Z,2.05
2019-05-26T13:40:30.210Z,2.20
2019-05-26T13:42:02.739Z,2.17
2019-05-26T13:43:35.147Z,2.12
2019-05-26T13:45:21.057Z,2.27
2019-05-26T13:46:42.435Z,2.02
2019-05-26T13:48:14.869Z,1.87
2019-05-26T13:49:47.270Z,1.77
2019-05-26T13:51:19.768Z,1.90
2019-05-26T13:52:52.344Z,1.70
2019-05-26T13:54:27.691Z,1.70
2019-05-26T13:56:01.559Z,1.60
2019-05-26T13:57:34.484Z,1.50
2019-05-26T13:59:06.968Z,1.70
2019-05-26T14:00:39.392Z,1.70
2019-05-26T14:02:12.208Z,1.50
2019-05-26T14:03:44.749Z,1.80
2019-05-26T14:05:17.354Z,2.02
2019-05-26T14:06:50.016Z,1.95
2019-05-26T14:08:24.750Z,2.10
2019-05-26T14:09:57.186Z,1.77
2019-05-26T14:11:29.730Z,2.10
2019-05-26T14:13:02.454Z,2.10
2019-05-26T14:14:35.085Z,1.80
2019-05-26T14:16:07.540Z,1.77
2019-05-26T14:17:40.036Z,1.47
2019-05-26T14:19:12.733Z,1.60
2019-05-26T14:20:45.345Z,1.52
2019-05-26T14:22:17.773Z,1.52
2019-05-26T14:23:50.246Z,2.15
2019-05-26T14:25:23.088Z,1.50
2019-05-26T14:26:55.571Z,1.50
2019-05-26T14:28:28.898Z,1.50
2019-05-26T14:30:01.884Z,1.40
2019-05-26T14:31:34.494Z,1.50
2019-05-26T14:33:06.967Z,1.60
2019-05-26T14:34:39.308Z,1.50
2019-05-26T14:36:11.787Z,1.72
2019-05-26T14:37:46.288Z,1.65
2019-05-26T14:39:19.134Z,1.80
2019-05-26T14:40:51.651Z,1.50
2019-05-26T14:42:24.004Z,1.52
2019-05-26T14:43:56.331Z,1.82
2019-05-26T14:45:28.740Z,1.87
2019-05-26T14:47:01.067Z,1.95
2019-05-26T14:48:33.483Z,1.62
2019-05-26T14:50:05.883Z,1.90
2019-05-26T14:51:38.375Z,2.00
2019-05-26T14:53:11.221Z,1.95
2019-05-26T14:54:43.879Z,2.20
2019-05-26T14:56:16.214Z,2.52
2019-05-26T14:57:48.637Z,2.08
2019-05-26T14:59:21.118Z,2.25
2019-05-26T15:00:53.523Z,2.50
2019-05-26T15:02:26.126Z,1.92
2019-05-26T15:03:58.589Z,1.80
2019-05-26T15:05:32.249Z,3.98
2019-05-26T15:07:05.077Z,6.53
2019-05-26T15:08:37.626Z,3.70
2019-05-26T15:10:10.118Z,3.25
2019-05-26T15:11:42.615Z,2.95
2019-05-26T15:13:15.115Z,2.47
2019-05-26T15:14:47.536Z,2.00
2019-05-26T15:16:20.026Z,1.80
2019-05-26T15:17:52.547Z,1.40
2019-05-26T15:19:25.005Z,1.37
2019-05-26T15:20:57.769Z,1.60
2019-05-26T15:22:30.545Z,1.37
2019-05-26T15:24:02.968Z,1.22
2019-05-26T15:25:35.480Z,1.40
2019-05-26T15:27:07.888Z,1.30
2019-05-26T15:28:40.400Z,1.42
2019-05-26T15:30:12.804Z,1.80
2019-05-26T15:31:45.304Z,1.42
2019-05-26T15:33:17.720Z,1.30
2019-05-26T15:34:51.418Z,1.50
2019-05-26T15:36:23.823Z,1.50
2019-05-26T15:37:56.215Z,1.22
2019-05-26T15:39:28.656Z,1.20
2019-05-26T15:41:01.148Z,1.60
2019-05-26T15:42:33.824Z,1.50
2019-05-26T15:44:06.305Z,1.20
2019-05-26T15:45:38.826Z,1.10
2019-05-26T15:47:11.214Z,1.35
2019-05-26T15:48:43.811Z,1.52
2019-05-26T15:50:16.337Z,1.60
2019-05-26T15:51:49.112Z,1.30
2019-05-26T15:53:21.647Z,1.47
2019-05-26T15:54:54.170Z,1.25
2019-05-26T15:56:26.504Z,1.30
2019-05-26T15:57:59.523Z,1.37
2019-05-26T15:59:31.984Z,1.47
2019-05-26T16:01:04.490Z,1.47
2019-05-26T16:02:37.204Z,1.27
2019-05-26T16:04:09.778Z,1.25
2019-05-26T16:05:42.348Z,1.10
2019-05-26T16:07:33.275Z,1.20
2019-05-26T16:09:13.029Z,1.30
2019-05-26T16:10:45.517Z,1.50
2019-05-26T16:12:18.015Z,1.50
2019-05-26T16:13:50.456Z,1.30
2019-05-26T16:15:23.209Z,1.20
2019-05-26T16:16:55.656Z,3.47
2019-05-26T16:18:28.114Z,2.52
2019-05-26T16:20:00.656Z,1.90
2019-05-26T16:21:33.078Z,1.45
2019-05-26T16:23:08.561Z,1.57
2019-05-26T16:24:39.597Z,1.30
2019-05-26T16:26:12.109Z,1.60
2019-05-26T16:27:44.629Z,1.40
2019-05-26T16:29:17.091Z,1.45
2019-05-26T16:30:49.626Z,1.20
2019-05-26T16:32:22.039Z,1.45
2019-05-26T16:33:54.820Z,1.50
2019-05-26T16:37:25.075Z,1.52
2019-05-26T16:38:57.601Z,1.37
2019-05-26T16:40:29.999Z,1.42
2019-05-26T16:42:02.524Z,1.60
2019-05-26T16:43:53.730Z,1.50
2019-05-26T16:45:55.589Z,1.50
2019-05-26T16:47:20.473Z,1.70
2019-05-26T16:48:54.751Z,1.80
2019-05-26T16:50:27.086Z,1.67
2019-05-26T16:51:59.483Z,1.57
2019-05-26T16:53:31.881Z,1.52
2019-05-26T16:55:04.371Z,1.70
2019-05-26T16:56:36.794Z,2.02
2019-05-26T16:58:09.203Z,1.87
2019-05-26T16:59:41.618Z,1.60
2019-05-26T17:01:16.924Z,1.77
2019-05-26T17:02:49.416Z,1.85
2019-05-26T17:04:23.136Z,1.77
2019-05-26T17:06:07.500Z,1.80
2019-05-26T17:07:30.056Z,1.90
2019-05-26T17:09:02.949Z,2.10
2019-05-26T17:10:35.426Z,2.47
2019-05-26T17:12:07.972Z,2.60
2019-05-26T17:13:40.457Z,2.60
2019-05-26T17:15:12.817Z,2.37
2019-05-26T17:16:45.286Z,2.60
2019-05-26T17:18:17.875Z,2.80
2019-05-26T17:19:52.734Z,2.20
2019-05-26T17:21:24.557Z,2.08
2019-05-26T17:22:57.047Z,1.98
2019-05-26T17:24:29.388Z,2.10
2019-05-26T17:26:02.915Z,2.30
2019-05-26T17:27:35.544Z,2.05
2019-05-26T17:29:08.004Z,2.33
2019-05-26T17:30:40.481Z,2.15
2019-05-26T17:32:12.963Z,2.60
2019-05-26T17:33:45.417Z,1.98
2019-05-26T17:35:17.749Z,2.10
2019-05-26T17:36:50.440Z,2.40
2019-05-26T17:38:22.859Z,2.42
2019-05-26T17:39:55.699Z,2.60
2019-05-26T17:41:28.208Z,1.98
2019-05-26T17:43:00.615Z,2.05
2019-05-26T17:44:33.107Z,2.10
2019-05-26T17:46:05.521Z,2.00
2019-05-26T17:47:37.951Z,1.80
2019-05-26T17:49:10.437Z,2.10
2019-05-26T17:50:42.906Z,2.20
2019-05-26T17:52:15.252Z,2.20
2019-05-26T17:53:47.682Z,1.90
2019-05-26T17:55:20.179Z,2.02
2019-05-26T17:56:52.549Z,1.67
2019-05-26T17:58:25.021Z,2.00
2019-05-26T17:59:57.522Z,1.85
2019-05-26T18:01:29.932Z,1.95
2019-05-26T18:03:02.403Z,2.10
2019-05-26T18:04:34.756Z,2.27
2019-05-26T18:06:07.169Z,2.10
2019-05-26T18:07:39.644Z,2.20
2019-05-26T18:09:12.145Z,1.90
2019-05-26T18:10:44.628Z,2.00
2019-05-26T18:12:16.968Z,2.10
2019-05-26T18:13:49.447Z,2.23
2019-05-26T18:15:21.806Z,2.12
2019-05-26T18:16:54.211Z,2.02
2019-05-26T18:18:26.619Z,2.40
2019-05-26T18:19:58.969Z,2.00
2019-05-26T18:21:31.455Z,2.40
2019-05-26T18:23:03.923Z,2.30
2019-05-26T18:24:36.278Z,2.62
2019-05-26T18:26:08.761Z,2.42
2019-05-26T18:27:41.264Z,2.83
2019-05-26T18:29:13.744Z,2.45
2019-05-26T18:30:46.176Z,2.50
2019-05-26T18:32:18.643Z,2.42
2019-05-26T18:33:51.007Z,2.58
2019-05-26T18:35:23.503Z,2.65
2019-05-26T18:36:55.905Z,2.33
2019-05-26T18:38:28.239Z,2.75
2019-05-26T18:40:00.676Z,2.65
2019-05-26T18:41:33.863Z,2.70
2019-05-26T18:43:06.262Z,2.58
2019-05-26T18:44:38.677Z,2.75
2019-05-26T18:46:11.173Z,3.00
2019-05-26T18:47:43.602Z,2.50
2019-05-26T18:49:16.198Z,2.60
2019-05-26T18:50:49.422Z,2.75
2019-05-26T18:52:21.991Z,3.10
2019-05-26T18:53:54.396Z,2.80
2019-05-26T18:55:26.895Z,2.60
2019-05-26T18:56:59.304Z,3.30
2019-05-26T18:58:31.712Z,3.08
2019-05-26T19:00:04.110Z,2.70
2019-05-26T19:01:37.299Z,2.83
2019-05-26T19:03:09.888Z,2.92
2019-05-26T19:04:42.373Z,3.10
2019-05-26T19:06:14.740Z,3.27
2019-05-26T19:07:47.240Z,3.15
2019-05-26T19:09:19.718Z,2.95
2019-05-26T19:10:52.146Z,2.90
2019-05-26T19:12:24.732Z,3.10
2019-05-26T19:13:57.148Z,3.85
2019-05-26T19:15:29.633Z,3.45
2019-05-26T19:17:02.084Z,3.67
2019-05-26T19:18:34.552Z,3.25
2019-05-26T19:20:16.170Z,3.60
2019-05-26T19:21:41.175Z,3.47
2019-05-26T19:23:14.144Z,3.37
2019-05-26T19:24:46.487Z,3.58
2019-05-26T19:26:18.913Z,3.60
2019-05-26T19:27:51.395Z,3.65
2019-05-26T19:29:23.729Z,3.80
2019-05-26T19:30:56.131Z,3.47
2019-05-26T19:32:28.548Z,3.50
2019-05-26T19:34:00.896Z,3.37
2019-05-26T19:35:33.370Z,3.17
2019-05-26T19:37:05.790Z,3.50
2019-05-26T19:38:38.123Z,3.30
2019-05-26T19:40:10.527Z,3.50
2019-05-26T19:41:42.952Z,3.12
2019-05-26T19:43:15.447Z,3.92
2019-05-26T19:44:47.927Z,3.50
2019-05-26T19:46:20.408Z,3.58
2019-05-26T19:47:52.963Z,3.20
2019-05-26T19:49:25.520Z,3.50
2019-05-26T19:50:57.946Z,2.90
2019-05-26T19:52:30.393Z,3.33
2019-05-26T19:54:02.887Z,3.33
2019-05-26T19:55:35.291Z,3.30
2019-05-26T19:57:07.623Z,3.67
2019-05-26T19:58:40.063Z,3.30
2019-05-26T20:00:12.476Z,3.35
2019-05-26T20:01:44.958Z,3.33
2019-05-26T20:03:17.478Z,3.22
2019-05-26T20:04:49.936Z,3.40
2019-05-26T20:06:22.268Z,3.50
2019-05-26T20:07:54.786Z,3.77
2019-05-26T20:09:27.284Z,3.98
2019-05-26T20:10:59.714Z,4.00
2019-05-26T20:12:32.208Z,4.00
2019-05-26T20:14:05.036Z,3.65
2019-05-26T20:15:37.534Z,4.17
2019-05-26T20:17:09.939Z,4.37
2019-05-26T20:18:42.440Z,4.10
2019-05-26T20:20:14.781Z,4.30
2019-05-26T20:21:47.362Z,4.08
2019-05-26T20:23:19.816Z,4.35
2019-05-26T20:24:52.436Z,5.08
2019-05-26T20:26:24.851Z,4.50
2019-05-26T20:27:57.290Z,4.90
2019-05-26T20:29:29.812Z,7.70
2019-05-26T20:31:02.223Z,7.08
2019-05-26T20:32:34.714Z,5.00
2019-05-26T20:34:07.136Z,6.22
2019-05-26T20:35:39.617Z,4.95
2019-05-26T20:37:12.031Z,4.22